ACT        NSW        VIC        QLD        SA        WA        TAS        NT        INFO        CALC            by VK5ZD

Past Date/Time: (dd/mm/yyyy hh:mm or blank for current data)    

  Atmospheric Gas Attenuation - ITU Rec 676-11   --------------- dB/100km ---------------
WA Stations Date Time Temp RH % AH g/m3 Dew Point Wind Direction Speed kph Gust kph Barometer mB Rainfall Since 9am 24GHz 47GHz 76GHz 122GHz 134GHz 241GHz
Albany Airport 01/09 06:50 8.2 96 8.04 7.6 15 15 1022.9 5 18.6 27.0 40.8 106.8 98.7 338.7
Badgingarra 01/09 06:50 10.8 93 9.19 9.7 13 17 1013.1 0.8 21.0 27.8 43.8 115.2 110.5 380.4
Barimunya 01/09 06:50 19.7 38 6.45 5 7 9 1013.1 0 14.8 21.1 29.3 76.5 66.1 225.8
Barrow Island 01/09 06:50 21.9 64 12.35 14.8 26 28 1019 0 27.1 29.7 50.7 133.5 136.7 473.3
Bickley 01/09 06:50 7.3 95 7.51 6.6 13 17 1013.1 2.4 17.5 26.0 38.5 101.0 91.6 314.0
Boolgeeda 01/09 06:50 16.7 49 6.96 5.9 4 6 1020.7 0 16.0 22.8 32.5 85.0 75.1 257.1
Bridgetown 01/09 06:50 6.8 98 7.5 6.5 0 0 1024.3 7.8 17.5 26.6 39.2 102.7 93.0 318.4
Broome 01/09 06:50 19.7 88 14.94 17.7 0 0 1017.9 0 32.8 35.0 63.5 167.5 177.9 616.7
Bunbury 01/09 06:50 5.1 102 6.98 5.1 4 6 1024.6 2.2 16.5 26.2 37.9 99.0 87.7 299.6
Busselton Airport 01/09 06:50 7 100 7.75 7 4 6 1024.3 3.2 18.1 26.9 40.2 105.3 96.3 329.9
Cape Leeuwin 01/09 06:50 14.3 57 7 5.9 28 35 1023.7 6.8 16.2 23.6 33.8 88.2 78.1 267.3
Cape Naturaliste 01/09 06:50 9.6 78 7.15 6 13 15 1024 3.2 16.7 25.1 36.4 95.3 84.9 290.7
Carnarvon 01/09 06:50 14.4 94 11.62 13.4 13 15 1022.3 0 26.0 31.2 52.7 138.7 140.4 485.2
Christmas Creek 01/09 06:50 19.2 37 6.1 4.2 4 4 1021.4 0 14.1 21.1 28.6 74.5 63.0 214.9
Christmas Island 01/09 06:50 23.7 94 20.11 22.7 17 28 1015.2 0 43.5 42.9 84.1 222.5 246.8 857.0
Collie East 01/09 06:50 6.4 99 7.38 6.3 0 0 1013.1 2.2 17.3 26.0 38.4 100.7 90.9 311.3
Coondewanna 01/09 06:50 14.9 49 6.24 4.3 6 6 1013.1 0 14.5 22.0 30.3 79.2 67.6 230.8
Cunderdin Airport 01/09 06:50 10.1 92 8.7 8.9 9 11 1024.6 0.6 20.0 27.6 42.7 111.9 105.6 363.1
Curtin 01/09 06:50 23 48 9.87 11.4 9 11 1016.7 0 21.8 25.4 40.3 105.7 103.0 355.7
Dalwallinu 01/09 06:50 10.2 93 8.85 9.1 15 19 1023.3 0 20.3 27.8 43.2 113.3 107.5 369.6
Derby 01/09 06:50 20.4 70 12.38 14.7 9 13 1017.6 0 27.3 30.2 51.7 136.2 139.6 483.4
Dwellingup 01/09 06:50 5.2 96 6.61 4.6 9 11 1024.6 3 15.7 25.5 36.2 94.7 82.4 281.1
Eliwana Airport 01/09 06:48 17.3 53 7.81 7.7 7 9 1013.1 0 17.7 23.7 35.1 92.0 84.3 289.5
Esperance 01/09 06:50 13.2 76 8.73 9.1 6 9 1022 0.6 19.9 26.6 41.0 107.6 101.6 349.6
Esperance Airport 01/09 06:50 11.3 93 9.49 10.2 9 11 1022.2 2.2 21.6 28.5 45.3 118.9 114.8 395.6
Eucla 01/09 06:50 18.2 76 11.81 13.9 20 30 1018.3 0 26.2 30.0 50.8 133.7 135.8 469.7
Fitzroy Crossing 01/09 06:50 21.8 35 6.71 5.7 7 11 1018.3 0 15.3 21.2 29.6 77.4 67.5 231.2
Forrest 01/09 06:50 17.6 70 10.5 12.1 1018.3 0 23.4 28.0 45.7 120.1 118.8 410.5
Fortescue Dave Forrest 01/09 06:50 20.9 36 6.56 5.3 9 11 1020.3 0 15.0 21.3 29.5 77.0 66.7 228.3
Garden Island 01/09 06:50 10.3 89 8.53 8.6 11 13 1024.8 0.8 19.6 27.3 41.8 109.7 103.0 353.9
Geraldton Airport 01/09 06:50 12.9 96 10.82 12.3 13 15 1022.8 1.8 24.4 30.3 50.1 131.9 131.4 453.8
Gerangamete (Cfa) 01/09 08:40 9.1 100 8.88 9.1 0 0 1013.1 0.2 20.4 27.8 43.4 114.1 108.6 373.4
Giles* 01/09 08:20 22.8 26 5.28 2.3 20 32 1021.1 0 12.2 19.2 24.8 64.3 51.6 175.3
Gingin Airport 01/09 06:50 10.1 95 8.99 9.3 7 7 1024.7 0.4 20.6 28.1 43.9 115.2 109.7 377.5
Golden Grove 01/09 06:50 9.1 97 8.61 8.6 2 7 1013.1 0 19.8 27.3 42.3 111.0 104.7 360.0
Gooseberry Hill 01/09 06:50 9.9 89 8.31 8.2 15 22 1013.1 0 19.2 26.6 40.6 106.5 99.5 341.7
Gudai-Darri Mine 01/09 06:50 23.1 33 6.82 6 9 11 1013.1 0 15.4 20.9 29.4 76.7 67.4 230.8
Halls Creek 01/09 08:20 19.9 46 7.9 7.9 0 0 1019.4 0 17.8 23.4 34.6 90.5 83.1 285.5
Hopetoun North 01/09 06:50 10.3 94 9 9.4 9 15 1022.4 3.4 20.6 28.0 43.7 114.8 109.4 376.3
Iron Bridge Mine 01/09 06:50 18.3 47 7.35 6.8 7 7 1013.1 0 16.7 22.8 33.0 86.4 77.7 266.6
Jacup 01/09 06:50 6.2 99 7.28 6.1 9 15 1023.3 2.4 17.1 26.3 38.6 100.9 90.5 309.8
Jandakot 01/09 06:50 7.1 94 7.33 6.2 0 0 1024.8 1 17.2 26.2 38.4 100.5 90.3 309.0
Kalgoorlie-Boulder 01/09 06:50 11.3 94 9.59 10.4 9 11 1021.6 0 21.8 28.7 45.7 120.0 116.2 400.3
Kalumburu 01/09 08:20 21 91 16.67 19.5 0 0 1018.3 0 36.4 37.7 70.4 186.0 200.9 697.2
Karijini North 01/09 06:50 23.4 30 6.31 4.9 2 7 1018.9 0 14.4 20.3 27.8 72.4 61.9 211.7
Karratha 01/09 06:50 18.4 68 10.69 12.4 9 9 1018.3 0 23.8 28.1 46.0 121.0 120.2 415.1
Katanning Rs 01/09 06:50 6.3 99 7.33 6.2 11 15 1024.2 1.6 17.2 26.4 38.8 101.4 91.2 312.1
Koolan Island / Koolan Central 01/09 06:50 25.4 49 11.54 13.9 6 7 1013.1 0 25.2 27.1 45.1 118.7 119.9 415.0
Kununurra Airport 01/09 08:20 24.3 50 11.06 13.2 6 7 1019.2 0 24.2 26.9 44.2 116.1 116.1 401.7
Lake Grace 01/09 06:50 7.1 96 7.49 6.5 7 11 1024 0.2 17.5 26.4 39.0 102.2 92.5 316.6
Lancelin (Defence) 01/09 06:50 10.9 98 9.75 10.6 7 13 1023.9 1.8 22.2 29.2 46.7 122.7 119.3 411.2
Laverton 01/09 06:50 14.6 90 11.26 13 0 0 1021.1 0 25.2 30.4 50.9 133.9 134.7 465.3
Learmonth 01/09 06:50 15.1 87 11.22 13 13 15 1021 0 25.1 30.2 50.4 132.6 133.2 460.2
Legendre Island 01/09 06:50 21.7 77 14.69 17.5 17 17 1018.4 0 32.1 33.8 60.7 160.3 169.6 588.3
Leinster 01/09 06:50 12.7 84 9.35 10.1 0 0 1021.3 0 21.2 27.8 43.8 115.1 110.7 381.4
Leonora Airport 01/09 06:50 13.5 84 9.83 10.9 0 0 1021.5 0 22.2 28.3 45.4 119.3 116.2 400.8
Lombadina 01/09 06:50 21.1 73 13.45 16.1 6 7 1013.1 0 29.5 31.6 55.5 146.5 152.6 528.9
Mandora 01/09 06:50 15.7 85 11.37 13.2 0 0 1017.1 0 25.4 30.1 50.5 132.8 133.9 462.7
Mandurah 01/09 06:50 10.5 80 7.76 7.2 6 6 1024.5 0.6 17.9 25.9 38.5 100.8 92.1 316.0
Manjimup 01/09 06:50 7.5 99 7.93 7.4 9 11 1023.6 6.2 18.4 27.1 40.7 106.6 98.1 336.5
Marble Bar 01/09 06:50 20.9 41 7.47 7.2 6 7 1018.7 0 16.9 22.5 32.6 85.3 77.0 264.2
Mardie 01/09 06:50 16.2 69 9.51 10.5 9 9 1019 0 21.4 26.9 42.5 111.5 107.7 371.4
Meekatharra 01/09 06:50 14.6 74 9.26 10 11 15 1021.2 0 20.9 27.0 42.4 111.3 106.8 367.9
Millendon (Swan Valley) 01/09 06:50 8.9 93 8.15 7.8 0 2 1024.6 0.4 18.8 27.0 41.0 107.3 99.5 341.5
Morawa Airport 01/09 06:50 10.2 96 9.14 9.6 0 0 1023.5 0 20.9 28.3 44.5 116.7 111.6 384.1
Mount Keith 01/09 06:50 13.9 76 9.11 9.7 7 9 1013.1 0 20.7 26.7 41.8 109.8 105.1 361.8
Mount Magnet Airport 01/09 06:50 11 93 9.31 9.9 2 9 1022.5 0 21.2 28.3 44.7 117.3 112.8 388.2
Munglinup West 01/09 06:50 9.8 97 9 9.3 11 15 1022.8 2.6 20.6 28.2 44.0 115.6 110.1 378.9
Newdegate 01/09 06:50 8.3 92 7.76 7.1 11 13 1023.5 0.4 18.0 26.5 39.6 103.6 94.7 324.7
Newman Airport 01/09 06:50 17.7 43 6.49 5 9 9 1020.1 0 14.9 21.9 30.4 79.4 68.6 234.5
Norseman Airport 01/09 06:50 11.2 86 8.72 8.9 6 9 1021.9 0 20.0 27.2 42.0 110.3 104.2 358.2
North Island 01/09 06:50 17.3 94 13.85 16.3 20 24 1022.8 0.8 30.6 34.2 60.7 160.0 167.6 580.6
Onslow Airport 01/09 06:50 17.9 61 9.31 10.3 20 26 1020.3 0 20.9 26.1 40.8 107.2 102.9 354.9
Paraburdoo 01/09 06:50 16.8 46 6.58 5.1 9 11 1019.5 0 15.2 22.2 31.1 81.1 70.4 240.7
Pearce 01/09 06:50 11.6 81 8.42 8.5 9 17 1024.4 2.4 19.3 26.7 40.7 106.6 99.7 342.7
Perth 01/09 06:50 8.4 98 8.32 8.1 0 0 1024.8 2.6 19.2 27.5 42.0 110.0 102.6 352.2
Perth Airport 01/09 06:50 8.5 94 8.03 7.6 0 0 1024.4 1.6 18.6 27.0 40.6 106.5 98.3 337.3
Port Hedland 01/09 06:50 19.7 65 11.04 12.9 13 15 1017.4 0 24.5 28.2 46.6 122.6 122.7 424.2
Portable Btsa (Dfes) 01/09 06:40 11.7 94 9.83 10.7 0 0 1013.1 0 22.3 28.6 46.1 121.2 118.2 407.5
Portable Btsd (Dfes) 01/09 06:40 10.2 95 9.04 9.4 11 13 1013.1 0 20.7 27.7 43.5 114.4 109.3 376.0
Portable Btse (Dfes) 01/09 06:40 15.9 67 9.07 9.9 2 4 1013.1 0 20.5 26.0 40.6 106.6 101.9 350.9
Portable Btsf (Dfes) 01/09 06:00 15.4 73 9.59 10.6 2 6 1013.1 0 21.6 27.0 43.0 112.9 109.4 377.2
Portable Btsh (Dfes) 01/09 06:40 16 90 12.26 14.4 13 19 1013.1 0 27.3 31.4 53.9 142.2 145.7 504.0
Portable Btsj (Dfes) 01/09 06:40 8.7 99 8.56 8.5 4 7 1013.1 0.4 19.8 27.4 42.3 111.0 104.6 359.4
Portable Btsl (Dfes) 01/09 06:40 11 92 9.21 9.7 4 4 1013.1 0 21.0 27.8 43.8 115.1 110.5 380.4
Portable Btsm (Dfes) 01/09 06:40 13.7 60 7.11 6.1 0 0 1013.1 0 16.4 23.6 34.0 89.0 79.3 271.7
Portable Btsn (Dfes) 01/09 06:40 11.9 88 9.32 10 2 4 1013.1 0 21.2 27.7 43.8 115.0 110.7 381.4
Portable Btso (Dfes) 01/09 06:40 5.6 97 6.86 5.1 2 6 1013.1 3.4 16.2 25.4 36.6 95.9 84.6 289.0
Red Rocks Point 01/09 06:50 17.4 83 12.3 14.5 19 26 1019.5 0 27.3 31.2 53.5 140.9 144.3 499.3
Rocky Gully South 01/09 06:50 5.1 96 6.57 4.5 7 9 1013.1 7 15.6 25.0 35.6 93.2 81.1 276.8
Roebourne Airport 01/09 06:50 21.8 54 10.36 12.1 17 19 1018.4 0 22.9 26.5 42.8 112.5 110.8 383.0
Rottnest Island 01/09 06:50 12.9 73 8.23 8.2 13 19 1024.3 1 18.8 26.0 39.2 102.8 95.5 328.1
Salmon Gums Rs 01/09 06:50 10.5 97 9.41 10 6 7 1013.1 0.2 21.5 28.3 44.9 118.2 114.1 392.8
Shannon 01/09 06:50 7.3 101 7.98 7.3 7 11 1013.1 9.8 18.6 26.8 40.5 106.3 98.2 337.0
Shark Bay Airport 01/09 06:50 13 98 11.11 12.7 9 11 1022.4 0.2 25.0 30.8 51.4 135.1 135.5 467.8
Solomon Airport 01/09 06:50 17.5 50 7.45 7 7 9 1021.1 0 17.0 23.4 34.0 88.9 80.2 275.3
Southern Cross Airport 01/09 06:50 10.6 98 9.57 10.3 13 19 1022.5 0 21.8 28.9 46.0 121.0 117.1 403.3
Swanbourne 01/09 06:50 9.8 100 9.28 9.8 9 11 1013.1 3.8 21.3 28.3 44.8 117.7 113.2 389.9
Telfer 01/09 06:50 22.4 35 6.95 6.2 0 0 1018.2 0 15.7 21.4 30.2 79.0 69.7 238.9
Thevenard Island 01/09 06:50 20.1 61 10.6 12.3 28 33 1019.9 0 23.5 27.5 44.7 117.6 116.5 402.7
Troughton Island 01/09 08:20 25.2 78 18.16 21.1 0 0 1018.4 0 39.1 38.6 73.4 194.0 212.1 736.8
Truscott 01/09 08:20 23.8 77 16.56 19.5 4 7 1017.8 0 35.9 36.2 67.3 177.9 191.9 666.1
Walpole North 01/09 06:50 8.3 81 6.83 5.2 7 9 1022.7 8.8 16.0 24.9 35.7 93.2 82.0 280.1
Wandering 01/09 06:50 3.8 97 6.09 3.4 4 7 1013.1 1.6 14.6 24.6 34.2 89.4 75.9 258.2
Warburton 01/09 08:20 22.7 30 6.06 4.2 20 30 1019.6 0 13.9 20.2 27.2 70.9 59.8 204.2
West Angelas 01/09 06:50 18.3 45 7.04 6.2 7 9 1021.3 0 16.1 22.6 32.2 84.1 74.6 255.5
West Musgrave Airport 01/09 06:50 20.4 37 6.54 5.2 19 24 1013.1 0 15.0 21.1 29.4 76.7 66.5 227.5
Wiluna Airport 01/09 06:50 14.3 69 8.48 8.7 7 7 1021.6 0.2 19.3 25.9 39.4 103.4 96.9 333.1
Witchcliffe West 01/09 06:50 6.4 96 7.16 5.8 0 0 1024 6 16.8 26.1 38.0 99.4 88.7 303.3
Wyndham Airport 01/09 08:20 24.1 48 10.5 12.4 0 0 1019 0 23.1 26.1 42.1 110.8 109.4 378.3
Yampi Sound (Defence) 01/09 06:50 19.7 74 12.56 14.9 4 6 1021.4 0 27.7 30.9 53.1 140.0 143.8 498.0

Last Refresh: 01-Sep-2026 08:32:17

Bureau of Meteorology